sensor_id;sensor_type;location;lat;lon;timestamp;P1;durP1;ratioP1;P2;durP2;ratioP2
12163;SDS011;6145;50.192;10.064;2024-02-26T00:01:50;1.87;;;1.30;;
12163;SDS011;6145;50.192;10.064;2024-02-26T00:04:17;2.47;;;1.90;;
12163;SDS011;6145;50.192;10.064;2024-02-26T00:06:44;2.50;;;1.90;;
12163;SDS011;6145;50.192;10.064;2024-02-26T00:09:11;1.63;;;1.53;;
12163;SDS011;6145;50.192;10.064;2024-02-26T00:11:38;2.00;;;1.60;;
12163;SDS011;6145;50.192;10.064;2024-02-26T00:14:05;4.73;;;2.50;;
12163;SDS011;6145;50.192;10.064;2024-02-26T00:16:31;2.90;;;2.10;;
12163;SDS011;6145;50.192;10.064;2024-02-26T00:18:59;2.17;;;1.80;;
12163;SDS011;6145;50.192;10.064;2024-02-26T00:21:27;1.10;;;1.00;;
12163;SDS011;6145;50.192;10.064;2024-02-26T00:23:54;1.83;;;1.50;;
12163;SDS011;6145;50.192;10.064;2024-02-26T00:26:21;0.97;;;0.93;;
12163;SDS011;6145;50.192;10.064;2024-02-26T00:28:48;3.30;;;2.40;;
12163;SDS011;6145;50.192;10.064;2024-02-26T00:31:15;1.83;;;1.27;;
12163;SDS011;6145;50.192;10.064;2024-02-26T00:33:42;2.70;;;2.00;;
12163;SDS011;6145;50.192;10.064;2024-02-26T00:36:10;2.27;;;2.07;;
12163;SDS011;6145;50.192;10.064;2024-02-26T00:38:37;2.83;;;2.40;;
12163;SDS011;6145;50.192;10.064;2024-02-26T00:41:04;4.10;;;2.07;;
12163;SDS011;6145;50.192;10.064;2024-02-26T00:43:31;1.50;;;1.40;;
12163;SDS011;6145;50.192;10.064;2024-02-26T00:45:58;2.10;;;1.53;;
12163;SDS011;6145;50.192;10.064;2024-02-26T00:48:24;1.80;;;1.40;;
12163;SDS011;6145;50.192;10.064;2024-02-26T00:50:51;2.60;;;1.73;;
12163;SDS011;6145;50.192;10.064;2024-02-26T00:53:19;1.07;;;1.07;;
12163;SDS011;6145;50.192;10.064;2024-02-26T00:55:46;1.83;;;1.70;;
12163;SDS011;6145;50.192;10.064;2024-02-26T00:58:13;3.23;;;1.53;;
12163;SDS011;6145;50.192;10.064;2024-02-26T01:00:41;2.20;;;1.27;;
12163;SDS011;6145;50.192;10.064;2024-02-26T01:03:08;1.73;;;1.63;;
12163;SDS011;6145;50.192;10.064;2024-02-26T01:05:35;2.27;;;2.07;;
12163;SDS011;6145;50.192;10.064;2024-02-26T01:08:03;3.10;;;2.77;;
12163;SDS011;6145;50.192;10.064;2024-02-26T01:10:31;2.20;;;1.90;;
12163;SDS011;6145;50.192;10.064;2024-02-26T01:12:58;1.47;;;1.37;;
12163;SDS011;6145;50.192;10.064;2024-02-26T01:15:25;3.97;;;2.17;;
12163;SDS011;6145;50.192;10.064;2024-02-26T01:17:52;4.37;;;1.97;;
12163;SDS011;6145;50.192;10.064;2024-02-26T01:20:19;3.23;;;2.07;;
12163;SDS011;6145;50.192;10.064;2024-02-26T01:22:46;3.13;;;2.40;;
12163;SDS011;6145;50.192;10.064;2024-02-26T01:25:13;3.13;;;2.17;;
12163;SDS011;6145;50.192;10.064;2024-02-26T01:27:42;2.37;;;1.87;;
12163;SDS011;6145;50.192;10.064;2024-02-26T01:30:09;1.87;;;1.70;;
12163;SDS011;6145;50.192;10.064;2024-02-26T01:32:36;2.63;;;2.30;;
12163;SDS011;6145;50.192;10.064;2024-02-26T01:35:03;1.90;;;1.63;;
12163;SDS011;6145;50.192;10.064;2024-02-26T01:37:32;1.87;;;1.57;;
12163;SDS011;6145;50.192;10.064;2024-02-26T01:39:59;2.10;;;1.90;;
12163;SDS011;6145;50.192;10.064;2024-02-26T01:42:29;3.17;;;2.40;;
12163;SDS011;6145;50.192;10.064;2024-02-26T01:44:57;3.03;;;2.13;;
12163;SDS011;6145;50.192;10.064;2024-02-26T01:47:24;2.40;;;1.90;;
12163;SDS011;6145;50.192;10.064;2024-02-26T01:49:52;1.97;;;1.70;;
12163;SDS011;6145;50.192;10.064;2024-02-26T01:52:19;1.70;;;1.60;;
12163;SDS011;6145;50.192;10.064;2024-02-26T01:54:47;2.77;;;2.27;;
12163;SDS011;6145;50.192;10.064;2024-02-26T01:57:16;2.80;;;2.60;;
12163;SDS011;6145;50.192;10.064;2024-02-26T01:59:43;2.07;;;1.80;;
12163;SDS011;6145;50.192;10.064;2024-02-26T02:02:11;2.40;;;1.90;;
12163;SDS011;6145;50.192;10.064;2024-02-26T02:04:39;2.33;;;2.10;;
12163;SDS011;6145;50.192;10.064;2024-02-26T02:07:06;2.30;;;2.10;;
12163;SDS011;6145;50.192;10.064;2024-02-26T02:09:33;2.83;;;1.80;;
12163;SDS011;6145;50.192;10.064;2024-02-26T02:12:00;2.00;;;1.60;;
12163;SDS011;6145;50.192;10.064;2024-02-26T02:14:27;2.03;;;1.83;;
12163;SDS011;6145;50.192;10.064;2024-02-26T02:16:54;2.63;;;2.10;;
12163;SDS011;6145;50.192;10.064;2024-02-26T02:19:22;2.37;;;2.00;;
12163;SDS011;6145;50.192;10.064;2024-02-26T02:21:50;2.47;;;2.00;;
12163;SDS011;6145;50.192;10.064;2024-02-26T02:24:17;2.17;;;1.97;;
12163;SDS011;6145;50.192;10.064;2024-02-26T02:26:44;2.87;;;2.57;;
12163;SDS011;6145;50.192;10.064;2024-02-26T02:29:11;3.07;;;2.00;;
12163;SDS011;6145;50.192;10.064;2024-02-26T02:31:38;2.43;;;1.97;;
12163;SDS011;6145;50.192;10.064;2024-02-26T02:34:05;2.40;;;2.07;;
12163;SDS011;6145;50.192;10.064;2024-02-26T02:36:32;2.43;;;2.13;;
12163;SDS011;6145;50.192;10.064;2024-02-26T02:39:00;3.17;;;2.27;;
12163;SDS011;6145;50.192;10.064;2024-02-26T02:41:28;2.23;;;1.87;;
12163;SDS011;6145;50.192;10.064;2024-02-26T02:43:55;3.03;;;2.03;;
12163;SDS011;6145;50.192;10.064;2024-02-26T02:46:22;2.40;;;2.17;;
12163;SDS011;6145;50.192;10.064;2024-02-26T02:48:49;1.27;;;1.17;;
12163;SDS011;6145;50.192;10.064;2024-02-26T02:51:16;1.80;;;1.47;;
12163;SDS011;6145;50.192;10.064;2024-02-26T02:53:42;3.67;;;2.57;;
12163;SDS011;6145;50.192;10.064;2024-02-26T02:56:10;3.00;;;2.20;;
12163;SDS011;6145;50.192;10.064;2024-02-26T02:58:37;2.20;;;2.10;;
12163;SDS011;6145;50.192;10.064;2024-02-26T03:01:05;3.10;;;2.50;;
12163;SDS011;6145;50.192;10.064;2024-02-26T03:03:33;1.77;;;1.57;;
12163;SDS011;6145;50.192;10.064;2024-02-26T03:06:01;5.27;;;1.63;;
12163;SDS011;6145;50.192;10.064;2024-02-26T03:08:28;2.60;;;2.30;;
12163;SDS011;6145;50.192;10.064;2024-02-26T03:10:55;2.87;;;2.33;;
12163;SDS011;6145;50.192;10.064;2024-02-26T03:13:26;2.70;;;2.27;;
12163;SDS011;6145;50.192;10.064;2024-02-26T03:15:52;2.87;;;2.57;;
12163;SDS011;6145;50.192;10.064;2024-02-26T03:18:19;2.57;;;2.13;;
12163;SDS011;6145;50.192;10.064;2024-02-26T03:20:46;2.60;;;2.07;;
12163;SDS011;6145;50.192;10.064;2024-02-26T03:23:13;4.17;;;2.37;;
12163;SDS011;6145;50.192;10.064;2024-02-26T03:25:41;2.30;;;2.10;;
12163;SDS011;6145;50.192;10.064;2024-02-26T03:28:08;3.73;;;2.33;;
12163;SDS011;6145;50.192;10.064;2024-02-26T03:30:36;1.97;;;1.80;;
12163;SDS011;6145;50.192;10.064;2024-02-26T03:33:03;2.27;;;2.07;;
12163;SDS011;6145;50.192;10.064;2024-02-26T03:35:30;1.93;;;1.70;;
12163;SDS011;6145;50.192;10.064;2024-02-26T03:37:57;2.67;;;2.20;;
12163;SDS011;6145;50.192;10.064;2024-02-26T03:40:24;1.73;;;1.63;;
12163;SDS011;6145;50.192;10.064;2024-02-26T03:42:50;4.73;;;2.20;;
12163;SDS011;6145;50.192;10.064;2024-02-26T03:45:19;3.33;;;1.87;;
12163;SDS011;6145;50.192;10.064;2024-02-26T03:47:47;3.23;;;2.10;;
12163;SDS011;6145;50.192;10.064;2024-02-26T03:50:13;2.27;;;1.70;;
12163;SDS011;6145;50.192;10.064;2024-02-26T03:52:41;2.87;;;1.67;;
12163;SDS011;6145;50.192;10.064;2024-02-26T03:55:08;2.53;;;2.27;;
12163;SDS011;6145;50.192;10.064;2024-02-26T03:57:35;3.67;;;2.37;;
12163;SDS011;6145;50.192;10.064;2024-02-26T04:00:03;1.40;;;1.30;;
12163;SDS011;6145;50.192;10.064;2024-02-26T04:02:31;2.37;;;2.17;;
12163;SDS011;6145;50.192;10.064;2024-02-26T04:04:59;2.47;;;2.23;;
12163;SDS011;6145;50.192;10.064;2024-02-26T04:07:26;2.77;;;2.40;;
12163;SDS011;6145;50.192;10.064;2024-02-26T04:09:53;5.17;;;2.33;;
12163;SDS011;6145;50.192;10.064;2024-02-26T04:12:20;2.77;;;2.10;;
12163;SDS011;6145;50.192;10.064;2024-02-26T04:14:46;1.53;;;1.43;;
12163;SDS011;6145;50.192;10.064;2024-02-26T04:17:14;2.47;;;2.27;;
12163;SDS011;6145;50.192;10.064;2024-02-26T04:19:41;0.50;;;0.50;;
12163;SDS011;6145;50.192;10.064;2024-02-26T04:22:09;2.43;;;2.20;;
12163;SDS011;6145;50.192;10.064;2024-02-26T04:24:37;1.27;;;1.17;;
12163;SDS011;6145;50.192;10.064;2024-02-26T04:27:04;2.27;;;2.07;;
12163;SDS011;6145;50.192;10.064;2024-02-26T04:29:30;2.70;;;2.33;;
12163;SDS011;6145;50.192;10.064;2024-02-26T04:31:57;1.63;;;1.53;;
12163;SDS011;6145;50.192;10.064;2024-02-26T04:34:24;2.20;;;2.00;;
12163;SDS011;6145;50.192;10.064;2024-02-26T04:36:51;1.70;;;1.47;;
12163;SDS011;6145;50.192;10.064;2024-02-26T04:39:19;3.33;;;2.50;;
12163;SDS011;6145;50.192;10.064;2024-02-26T04:41:45;2.77;;;2.10;;
12163;SDS011;6145;50.192;10.064;2024-02-26T04:44:12;1.83;;;1.60;;
12163;SDS011;6145;50.192;10.064;2024-02-26T04:46:39;2.60;;;2.10;;
12163;SDS011;6145;50.192;10.064;2024-02-26T04:49:06;2.70;;;2.40;;
12163;SDS011;6145;50.192;10.064;2024-02-26T04:51:33;3.67;;;2.57;;
12163;SDS011;6145;50.192;10.064;2024-02-26T04:53:59;2.87;;;2.03;;
12163;SDS011;6145;50.192;10.064;2024-02-26T04:56:28;2.63;;;2.20;;
12163;SDS011;6145;50.192;10.064;2024-02-26T04:58:54;2.93;;;1.97;;
12163;SDS011;6145;50.192;10.064;2024-02-26T05:01:21;2.70;;;2.20;;
12163;SDS011;6145;50.192;10.064;2024-02-26T05:03:48;5.40;;;2.40;;
12163;SDS011;6145;50.192;10.064;2024-02-26T05:06:15;4.77;;;2.20;;
12163;SDS011;6145;50.192;10.064;2024-02-26T05:08:42;2.73;;;2.33;;
12163;SDS011;6145;50.192;10.064;2024-02-26T05:11:09;3.60;;;2.53;;
12163;SDS011;6145;50.192;10.064;2024-02-26T05:13:37;2.77;;;2.00;;
12163;SDS011;6145;50.192;10.064;2024-02-26T05:16:04;3.33;;;2.43;;
12163;SDS011;6145;50.192;10.064;2024-02-26T05:18:31;3.23;;;2.13;;
12163;SDS011;6145;50.192;10.064;2024-02-26T05:20:58;3.57;;;2.70;;
12163;SDS011;6145;50.192;10.064;2024-02-26T05:23:25;2.47;;;2.00;;
12163;SDS011;6145;50.192;10.064;2024-02-26T05:25:52;3.30;;;2.67;;
12163;SDS011;6145;50.192;10.064;2024-02-26T05:28:19;3.43;;;2.80;;
12163;SDS011;6145;50.192;10.064;2024-02-26T05:30:47;3.57;;;2.63;;
12163;SDS011;6145;50.192;10.064;2024-02-26T05:33:14;2.33;;;2.13;;
12163;SDS011;6145;50.192;10.064;2024-02-26T05:35:41;4.00;;;2.30;;
12163;SDS011;6145;50.192;10.064;2024-02-26T05:38:08;3.67;;;2.60;;
12163;SDS011;6145;50.192;10.064;2024-02-26T05:40:35;4.90;;;2.70;;
12163;SDS011;6145;50.192;10.064;2024-02-26T05:43:01;2.87;;;2.57;;
12163;SDS011;6145;50.192;10.064;2024-02-26T05:45:28;3.17;;;2.37;;
12163;SDS011;6145;50.192;10.064;2024-02-26T05:47:56;4.47;;;2.70;;
12163;SDS011;6145;50.192;10.064;2024-02-26T05:50:23;4.53;;;3.07;;
12163;SDS011;6145;50.192;10.064;2024-02-26T05:52:50;2.47;;;2.20;;
12163;SDS011;6145;50.192;10.064;2024-02-26T05:55:17;3.40;;;2.90;;
12163;SDS011;6145;50.192;10.064;2024-02-26T05:57:44;3.33;;;2.40;;
12163;SDS011;6145;50.192;10.064;2024-02-26T06:00:11;4.10;;;2.93;;
12163;SDS011;6145;50.192;10.064;2024-02-26T06:02:38;3.30;;;2.87;;
12163;SDS011;6145;50.192;10.064;2024-02-26T06:05:07;4.03;;;2.90;;
12163;SDS011;6145;50.192;10.064;2024-02-26T06:07:34;5.60;;;3.07;;
12163;SDS011;6145;50.192;10.064;2024-02-26T06:10:01;3.33;;;2.73;;
12163;SDS011;6145;50.192;10.064;2024-02-26T06:12:29;5.97;;;2.83;;
12163;SDS011;6145;50.192;10.064;2024-02-26T06:14:57;2.80;;;2.60;;
12163;SDS011;6145;50.192;10.064;2024-02-26T06:17:26;3.20;;;2.80;;
12163;SDS011;6145;50.192;10.064;2024-02-26T06:19:53;4.67;;;3.10;;
12163;SDS011;6145;50.192;10.064;2024-02-26T06:22:21;4.17;;;2.70;;
12163;SDS011;6145;50.192;10.064;2024-02-26T06:24:48;4.90;;;3.20;;
12163;SDS011;6145;50.192;10.064;2024-02-26T06:27:14;4.27;;;3.53;;
12163;SDS011;6145;50.192;10.064;2024-02-26T06:29:41;8.20;;;3.03;;
12163;SDS011;6145;50.192;10.064;2024-02-26T06:32:09;4.20;;;2.93;;
12163;SDS011;6145;50.192;10.064;2024-02-26T06:34:36;4.33;;;3.20;;
12163;SDS011;6145;50.192;10.064;2024-02-26T06:37:06;4.30;;;2.90;;
12163;SDS011;6145;50.192;10.064;2024-02-26T06:39:35;4.93;;;3.40;;
12163;SDS011;6145;50.192;10.064;2024-02-26T06:42:01;3.93;;;2.80;;
12163;SDS011;6145;50.192;10.064;2024-02-26T06:44:28;4.50;;;3.43;;
12163;SDS011;6145;50.192;10.064;2024-02-26T06:46:57;5.20;;;3.30;;
12163;SDS011;6145;50.192;10.064;2024-02-26T06:49:24;4.07;;;3.23;;
12163;SDS011;6145;50.192;10.064;2024-02-26T06:51:53;3.63;;;2.90;;
12163;SDS011;6145;50.192;10.064;2024-02-26T06:54:20;4.63;;;3.17;;
12163;SDS011;6145;50.192;10.064;2024-02-26T06:56:48;3.60;;;3.10;;
12163;SDS011;6145;50.192;10.064;2024-02-26T06:59:15;5.93;;;3.23;;
12163;SDS011;6145;50.192;10.064;2024-02-26T07:01:42;5.97;;;3.57;;
12163;SDS011;6145;50.192;10.064;2024-02-26T07:04:09;5.00;;;3.37;;
12163;SDS011;6145;50.192;10.064;2024-02-26T07:06:36;4.30;;;3.20;;
12163;SDS011;6145;50.192;10.064;2024-02-26T07:09:03;4.30;;;3.67;;
12163;SDS011;6145;50.192;10.064;2024-02-26T07:11:30;3.93;;;3.50;;
12163;SDS011;6145;50.192;10.064;2024-02-26T07:13:58;4.53;;;3.13;;
12163;SDS011;6145;50.192;10.064;2024-02-26T07:16:26;3.73;;;3.40;;
12163;SDS011;6145;50.192;10.064;2024-02-26T07:18:53;3.70;;;2.90;;
12163;SDS011;6145;50.192;10.064;2024-02-26T07:21:20;2.87;;;2.63;;
12163;SDS011;6145;50.192;10.064;2024-02-26T07:23:46;3.17;;;2.87;;
12163;SDS011;6145;50.192;10.064;2024-02-26T07:26:13;5.77;;;3.97;;
12163;SDS011;6145;50.192;10.064;2024-02-26T07:28:42;4.30;;;2.80;;
12163;SDS011;6145;50.192;10.064;2024-02-26T07:31:10;4.43;;;3.17;;
12163;SDS011;6145;50.192;10.064;2024-02-26T07:33:37;4.77;;;3.50;;
12163;SDS011;6145;50.192;10.064;2024-02-26T07:36:04;3.37;;;2.87;;
12163;SDS011;6145;50.192;10.064;2024-02-26T07:38:31;5.07;;;3.47;;
12163;SDS011;6145;50.192;10.064;2024-02-26T07:40:58;3.67;;;2.87;;
12163;SDS011;6145;50.192;10.064;2024-02-26T07:43:25;3.87;;;3.07;;
12163;SDS011;6145;50.192;10.064;2024-02-26T07:45:52;3.00;;;2.70;;
12163;SDS011;6145;50.192;10.064;2024-02-26T07:48:20;2.40;;;2.20;;
12163;SDS011;6145;50.192;10.064;2024-02-26T07:50:48;4.20;;;2.70;;
12163;SDS011;6145;50.192;10.064;2024-02-26T07:53:15;4.27;;;2.80;;
12163;SDS011;6145;50.192;10.064;2024-02-26T07:55:41;3.97;;;2.87;;
12163;SDS011;6145;50.192;10.064;2024-02-26T07:58:08;5.53;;;3.40;;
12163;SDS011;6145;50.192;10.064;2024-02-26T08:00:35;2.93;;;2.40;;
12163;SDS011;6145;50.192;10.064;2024-02-26T08:03:02;3.93;;;3.07;;
12163;SDS011;6145;50.192;10.064;2024-02-26T08:05:31;4.67;;;3.00;;
12163;SDS011;6145;50.192;10.064;2024-02-26T08:07:57;5.27;;;3.57;;
12163;SDS011;6145;50.192;10.064;2024-02-26T08:10:24;4.43;;;3.00;;
12163;SDS011;6145;50.192;10.064;2024-02-26T08:12:51;3.83;;;2.90;;
12163;SDS011;6145;50.192;10.064;2024-02-26T08:15:18;3.40;;;2.70;;
12163;SDS011;6145;50.192;10.064;2024-02-26T08:17:45;3.40;;;2.60;;
12163;SDS011;6145;50.192;10.064;2024-02-26T08:20:12;5.63;;;3.37;;
12163;SDS011;6145;50.192;10.064;2024-02-26T08:22:40;5.13;;;3.57;;
12163;SDS011;6145;50.192;10.064;2024-02-26T08:25:08;4.40;;;3.37;;
12163;SDS011;6145;50.192;10.064;2024-02-26T08:27:35;3.83;;;3.30;;
12163;SDS011;6145;50.192;10.064;2024-02-26T08:30:02;3.77;;;3.43;;
12163;SDS011;6145;50.192;10.064;2024-02-26T08:32:30;5.80;;;3.70;;
12163;SDS011;6145;50.192;10.064;2024-02-26T08:34:57;5.47;;;3.80;;
12163;SDS011;6145;50.192;10.064;2024-02-26T08:37:24;4.50;;;3.57;;
12163;SDS011;6145;50.192;10.064;2024-02-26T08:39:52;3.77;;;3.33;;
12163;SDS011;6145;50.192;10.064;2024-02-26T08:42:19;5.83;;;4.27;;
12163;SDS011;6145;50.192;10.064;2024-02-26T08:44:48;5.27;;;4.10;;
12163;SDS011;6145;50.192;10.064;2024-02-26T08:47:15;4.83;;;3.33;;
12163;SDS011;6145;50.192;10.064;2024-02-26T08:49:42;4.40;;;3.87;;
12163;SDS011;6145;50.192;10.064;2024-02-26T08:52:09;3.70;;;2.60;;
12163;SDS011;6145;50.192;10.064;2024-02-26T08:54:36;4.23;;;3.13;;
12163;SDS011;6145;50.192;10.064;2024-02-26T08:57:04;4.97;;;3.30;;
12163;SDS011;6145;50.192;10.064;2024-02-26T08:59:31;3.33;;;3.03;;
12163;SDS011;6145;50.192;10.064;2024-02-26T09:01:58;5.00;;;3.63;;
12163;SDS011;6145;50.192;10.064;2024-02-26T09:04:25;3.50;;;3.17;;
12163;SDS011;6145;50.192;10.064;2024-02-26T09:06:52;4.77;;;3.43;;
12163;SDS011;6145;50.192;10.064;2024-02-26T09:09:19;5.07;;;3.90;;
12163;SDS011;6145;50.192;10.064;2024-02-26T09:11:47;3.60;;;3.23;;
12163;SDS011;6145;50.192;10.064;2024-02-26T09:14:18;5.03;;;3.93;;
12163;SDS011;6145;50.192;10.064;2024-02-26T09:16:46;4.30;;;3.73;;
12163;SDS011;6145;50.192;10.064;2024-02-26T09:19:13;4.87;;;4.17;;
12163;SDS011;6145;50.192;10.064;2024-02-26T09:21:41;4.23;;;3.83;;
12163;SDS011;6145;50.192;10.064;2024-02-26T09:24:09;5.70;;;4.17;;
12163;SDS011;6145;50.192;10.064;2024-02-26T09:26:36;4.93;;;4.00;;
12163;SDS011;6145;50.192;10.064;2024-02-26T09:29:03;5.27;;;3.80;;
12163;SDS011;6145;50.192;10.064;2024-02-26T09:31:31;4.93;;;4.43;;
12163;SDS011;6145;50.192;10.064;2024-02-26T09:33:59;5.00;;;4.10;;
12163;SDS011;6145;50.192;10.064;2024-02-26T09:36:26;4.50;;;4.10;;
12163;SDS011;6145;50.192;10.064;2024-02-26T09:38:52;4.90;;;3.83;;
12163;SDS011;6145;50.192;10.064;2024-02-26T09:41:19;5.17;;;3.90;;
12163;SDS011;6145;50.192;10.064;2024-02-26T09:43:46;5.63;;;4.00;;
12163;SDS011;6145;50.192;10.064;2024-02-26T09:46:19;4.90;;;3.60;;
12163;SDS011;6145;50.192;10.064;2024-02-26T09:48:48;4.33;;;3.60;;
12163;SDS011;6145;50.192;10.064;2024-02-26T09:51:14;5.23;;;4.33;;
12163;SDS011;6145;50.192;10.064;2024-02-26T09:53:43;4.80;;;4.27;;
12163;SDS011;6145;50.192;10.064;2024-02-26T09:56:11;6.27;;;4.13;;
12163;SDS011;6145;50.192;10.064;2024-02-26T09:58:39;5.27;;;4.30;;
12163;SDS011;6145;50.192;10.064;2024-02-26T10:01:09;6.70;;;4.17;;
12163;SDS011;6145;50.192;10.064;2024-02-26T10:03:40;5.63;;;4.33;;
12163;SDS011;6145;50.192;10.064;2024-02-26T10:06:11;5.07;;;3.80;;
12163;SDS011;6145;50.192;10.064;2024-02-26T10:08:37;4.43;;;3.70;;
12163;SDS011;6145;50.192;10.064;2024-02-26T10:11:05;4.77;;;4.13;;
12163;SDS011;6145;50.192;10.064;2024-02-26T10:13:33;5.10;;;3.97;;
12163;SDS011;6145;50.192;10.064;2024-02-26T10:16:01;4.43;;;3.87;;
12163;SDS011;6145;50.192;10.064;2024-02-26T10:21:15;4.97;;;4.03;;
12163;SDS011;6145;50.192;10.064;2024-02-26T10:23:43;5.73;;;4.10;;
12163;SDS011;6145;50.192;10.064;2024-02-26T10:26:10;6.00;;;4.50;;
12163;SDS011;6145;50.192;10.064;2024-02-26T10:28:38;5.90;;;3.93;;
12163;SDS011;6145;50.192;10.064;2024-02-26T10:31:06;6.47;;;3.80;;
12163;SDS011;6145;50.192;10.064;2024-02-26T10:33:33;5.17;;;3.77;;
12163;SDS011;6145;50.192;10.064;2024-02-26T10:36:01;5.23;;;3.80;;
12163;SDS011;6145;50.192;10.064;2024-02-26T10:38:30;7.40;;;3.83;;
12163;SDS011;6145;50.192;10.064;2024-02-26T10:40:58;7.50;;;4.03;;
12163;SDS011;6145;50.192;10.064;2024-02-26T10:43:25;5.33;;;3.67;;
12163;SDS011;6145;50.192;10.064;2024-02-26T10:45:54;4.73;;;4.00;;
12163;SDS011;6145;50.192;10.064;2024-02-26T10:48:21;4.70;;;3.67;;
12163;SDS011;6145;50.192;10.064;2024-02-26T10:50:48;4.83;;;4.20;;
12163;SDS011;6145;50.192;10.064;2024-02-26T10:53:16;5.30;;;4.40;;
12163;SDS011;6145;50.192;10.064;2024-02-26T10:55:48;5.17;;;4.00;;
12163;SDS011;6145;50.192;10.064;2024-02-26T10:58:17;5.60;;;4.37;;
12163;SDS011;6145;50.192;10.064;2024-02-26T11:00:45;4.53;;;4.13;;
12163;SDS011;6145;50.192;10.064;2024-02-26T11:03:13;5.30;;;4.50;;
12163;SDS011;6145;50.192;10.064;2024-02-26T11:05:42;5.73;;;4.33;;
12163;SDS011;6145;50.192;10.064;2024-02-26T11:08:10;4.60;;;4.17;;
12163;SDS011;6145;50.192;10.064;2024-02-26T11:10:38;4.93;;;4.20;;
12163;SDS011;6145;50.192;10.064;2024-02-26T11:13:08;8.00;;;4.70;;
12163;SDS011;6145;50.192;10.064;2024-02-26T11:15:38;5.93;;;4.10;;
12163;SDS011;6145;50.192;10.064;2024-02-26T11:18:06;5.07;;;3.97;;
12163;SDS011;6145;50.192;10.064;2024-02-26T11:20:35;4.57;;;4.17;;
12163;SDS011;6145;50.192;10.064;2024-02-26T11:23:06;4.17;;;3.77;;
12163;SDS011;6145;50.192;10.064;2024-02-26T11:25:34;6.37;;;4.60;;
12163;SDS011;6145;50.192;10.064;2024-02-26T11:28:02;5.20;;;4.50;;
12163;SDS011;6145;50.192;10.064;2024-02-26T11:30:34;6.40;;;4.13;;
12163;SDS011;6145;50.192;10.064;2024-02-26T11:33:05;5.17;;;4.30;;
12163;SDS011;6145;50.192;10.064;2024-02-26T11:35:33;6.27;;;4.50;;
12163;SDS011;6145;50.192;10.064;2024-02-26T11:38:02;5.60;;;4.60;;
12163;SDS011;6145;50.192;10.064;2024-02-26T11:40:31;4.87;;;4.20;;
12163;SDS011;6145;50.192;10.064;2024-02-26T11:42:59;4.50;;;3.93;;
12163;SDS011;6145;50.192;10.064;2024-02-26T11:48:15;5.33;;;4.17;;
12163;SDS011;6145;50.192;10.064;2024-02-26T11:50:46;6.00;;;4.47;;
12163;SDS011;6145;50.192;10.064;2024-02-26T11:53:23;4.63;;;3.80;;
12163;SDS011;6145;50.192;10.064;2024-02-26T11:58:46;5.07;;;3.53;;
12163;SDS011;6145;50.192;10.064;2024-02-26T12:04:06;4.43;;;4.03;;
12163;SDS011;6145;50.192;10.064;2024-02-26T12:09:32;5.20;;;3.93;;
12163;SDS011;6145;50.192;10.064;2024-02-26T12:11:59;5.63;;;4.07;;
12163;SDS011;6145;50.192;10.064;2024-02-26T12:14:27;7.83;;;5.30;;
12163;SDS011;6145;50.192;10.064;2024-02-26T12:16:55;5.83;;;4.30;;
12163;SDS011;6145;50.192;10.064;2024-02-26T12:19:23;5.50;;;4.10;;
12163;SDS011;6145;50.192;10.064;2024-02-26T12:21:51;6.20;;;4.23;;
12163;SDS011;6145;50.192;10.064;2024-02-26T12:24:19;6.10;;;4.43;;
12163;SDS011;6145;50.192;10.064;2024-02-26T12:26:46;4.93;;;4.27;;
12163;SDS011;6145;50.192;10.064;2024-02-26T12:29:13;4.10;;;3.70;;
12163;SDS011;6145;50.192;10.064;2024-02-26T12:31:40;5.20;;;4.20;;
12163;SDS011;6145;50.192;10.064;2024-02-26T12:34:09;5.03;;;4.03;;
12163;SDS011;6145;50.192;10.064;2024-02-26T12:36:36;4.60;;;4.03;;
12163;SDS011;6145;50.192;10.064;2024-02-26T12:39:05;5.33;;;4.83;;
12163;SDS011;6145;50.192;10.064;2024-02-26T12:41:32;5.13;;;4.00;;
12163;SDS011;6145;50.192;10.064;2024-02-26T12:43:59;5.33;;;4.60;;
12163;SDS011;6145;50.192;10.064;2024-02-26T12:46:26;4.97;;;4.23;;
12163;SDS011;6145;50.192;10.064;2024-02-26T12:48:55;3.80;;;3.40;;
12163;SDS011;6145;50.192;10.064;2024-02-26T12:51:25;5.13;;;4.57;;
12163;SDS011;6145;50.192;10.064;2024-02-26T12:53:52;6.03;;;4.30;;
12163;SDS011;6145;50.192;10.064;2024-02-26T12:56:20;5.30;;;4.40;;
12163;SDS011;6145;50.192;10.064;2024-02-26T12:58:47;4.73;;;4.23;;
12163;SDS011;6145;50.192;10.064;2024-02-26T13:01:16;6.73;;;4.43;;
12163;SDS011;6145;50.192;10.064;2024-02-26T13:03:47;5.03;;;4.30;;
12163;SDS011;6145;50.192;10.064;2024-02-26T13:06:15;5.47;;;4.50;;
12163;SDS011;6145;50.192;10.064;2024-02-26T13:08:44;6.00;;;4.43;;
12163;SDS011;6145;50.192;10.064;2024-02-26T13:11:11;5.00;;;4.10;;
12163;SDS011;6145;50.192;10.064;2024-02-26T13:13:39;5.83;;;4.60;;
12163;SDS011;6145;50.192;10.064;2024-02-26T13:16:06;5.07;;;4.37;;
12163;SDS011;6145;50.192;10.064;2024-02-26T13:18:34;5.70;;;4.37;;
12163;SDS011;6145;50.192;10.064;2024-02-26T13:21:08;5.03;;;4.30;;
12163;SDS011;6145;50.192;10.064;2024-02-26T13:23:35;5.00;;;3.87;;
12163;SDS011;6145;50.192;10.064;2024-02-26T13:26:04;4.90;;;4.40;;
12163;SDS011;6145;50.192;10.064;2024-02-26T13:28:32;5.70;;;4.43;;
12163;SDS011;6145;50.192;10.064;2024-02-26T13:31:00;5.27;;;4.57;;
12163;SDS011;6145;50.192;10.064;2024-02-26T13:33:29;4.73;;;4.23;;
12163;SDS011;6145;50.192;10.064;2024-02-26T13:35:57;5.63;;;4.00;;
12163;SDS011;6145;50.192;10.064;2024-02-26T13:38:25;5.30;;;3.93;;
12163;SDS011;6145;50.192;10.064;2024-02-26T13:40:52;5.70;;;4.07;;
12163;SDS011;6145;50.192;10.064;2024-02-26T13:43:21;4.67;;;3.77;;
12163;SDS011;6145;50.192;10.064;2024-02-26T13:45:48;6.63;;;4.10;;
12163;SDS011;6145;50.192;10.064;2024-02-26T13:48:15;5.30;;;4.47;;
12163;SDS011;6145;50.192;10.064;2024-02-26T13:50:44;6.53;;;4.37;;
12163;SDS011;6145;50.192;10.064;2024-02-26T13:53:11;5.03;;;4.30;;
12163;SDS011;6145;50.192;10.064;2024-02-26T13:55:39;4.87;;;3.70;;
12163;SDS011;6145;50.192;10.064;2024-02-26T13:58:07;4.83;;;4.17;;
12163;SDS011;6145;50.192;10.064;2024-02-26T14:00:38;4.77;;;3.77;;
12163;SDS011;6145;50.192;10.064;2024-02-26T14:03:06;5.67;;;4.13;;
12163;SDS011;6145;50.192;10.064;2024-02-26T14:05:33;4.53;;;4.13;;
12163;SDS011;6145;50.192;10.064;2024-02-26T14:08:00;4.50;;;4.03;;
12163;SDS011;6145;50.192;10.064;2024-02-26T14:10:27;4.70;;;3.90;;
12163;SDS011;6145;50.192;10.064;2024-02-26T14:12:55;6.03;;;4.47;;
12163;SDS011;6145;50.192;10.064;2024-02-26T14:15:22;5.57;;;3.83;;
12163;SDS011;6145;50.192;10.064;2024-02-26T14:17:51;5.80;;;3.97;;
12163;SDS011;6145;50.192;10.064;2024-02-26T14:20:21;6.50;;;4.10;;
12163;SDS011;6145;50.192;10.064;2024-02-26T14:22:48;4.00;;;3.57;;
12163;SDS011;6145;50.192;10.064;2024-02-26T14:25:16;5.07;;;3.93;;
12163;SDS011;6145;50.192;10.064;2024-02-26T14:27:43;8.00;;;4.50;;
12163;SDS011;6145;50.192;10.064;2024-02-26T14:30:11;4.53;;;3.57;;
12163;SDS011;6145;50.192;10.064;2024-02-26T14:32:48;5.83;;;3.73;;
12163;SDS011;6145;50.192;10.064;2024-02-26T14:35:16;4.17;;;3.73;;
12163;SDS011;6145;50.192;10.064;2024-02-26T14:37:43;4.60;;;4.20;;
12163;SDS011;6145;50.192;10.064;2024-02-26T14:40:11;6.00;;;4.30;;
12163;SDS011;6145;50.192;10.064;2024-02-26T14:42:39;4.33;;;4.00;;
12163;SDS011;6145;50.192;10.064;2024-02-26T14:45:07;6.67;;;4.57;;
12163;SDS011;6145;50.192;10.064;2024-02-26T14:47:34;6.37;;;4.10;;
12163;SDS011;6145;50.192;10.064;2024-02-26T14:50:01;6.13;;;4.63;;
12163;SDS011;6145;50.192;10.064;2024-02-26T14:52:31;4.77;;;4.33;;
12163;SDS011;6145;50.192;10.064;2024-02-26T14:54:58;4.30;;;3.73;;
12163;SDS011;6145;50.192;10.064;2024-02-26T14:57:24;6.03;;;4.87;;
12163;SDS011;6145;50.192;10.064;2024-02-26T14:59:51;5.57;;;4.40;;
12163;SDS011;6145;50.192;10.064;2024-02-26T15:02:18;4.33;;;3.90;;
12163;SDS011;6145;50.192;10.064;2024-02-26T15:04:45;6.20;;;5.07;;